Venice, Louisiana
Current Conditions -  °F | °C
As of 3:03 PM on Friday 19 Dec 2014 (Local Time) from KBVE Reporting Station
Light Rain Light Rain  
Wind Chill: 61°   Ceiling: 400
Heat Index: 61°   Visibility: 3mi
Dew Point: 60°   Wind: 6mph
Humidity: 97%   Direction: 320°NW
Pressure: 30.04"   Gusts: NA
Location:  29.28°N, 89.36°W
Report Text: KBVE 192103Z AUTO 32005KT 3SM -RA BR BKN004 BKN011 OVC037 16/16 A3004 RMK AO2 P0001 T01610156
Loading
Personal Weather Stations






























Interactive Weather Map New forecast layout! Learn more

10-Day Weather Forecast

Advertisements
Track Severe Weather on mobile